createdAt,value
2024-04-08T09:01:35.639Z,25.50
2024-04-08T09:04:08.630Z,25.56
2024-04-08T09:06:37.364Z,25.65
2024-04-08T09:09:04.106Z,25.74
2024-04-08T09:11:31.654Z,25.77
2024-04-08T09:14:08.238Z,25.73
2024-04-08T09:16:34.990Z,25.83
2024-04-08T09:19:03.105Z,25.88
2024-04-08T09:21:29.891Z,25.88
2024-04-08T09:24:06.743Z,25.88
2024-04-08T09:26:33.716Z,25.88
2024-04-08T09:29:00.904Z,25.84
2024-04-08T09:31:28.784Z,25.79
2024-04-08T09:33:55.565Z,25.93
2024-04-08T09:36:22.449Z,25.98
2024-04-08T09:38:49.189Z,25.99
2024-04-08T09:41:16.371Z,26.01
2024-04-08T09:43:43.153Z,26.05
2024-04-08T09:46:10.538Z,26.05
2024-04-08T09:48:38.308Z,26.09
2024-04-08T09:51:06.865Z,26.09
2024-04-08T09:53:36.652Z,26.10
2024-04-08T09:56:12.174Z,26.10
2024-04-08T09:58:40.446Z,26.17
2024-04-08T10:01:07.314Z,26.19
2024-04-08T10:03:39.201Z,26.20
2024-04-08T10:06:06.491Z,26.24
2024-04-08T10:08:33.307Z,26.20
2024-04-08T10:11:00.071Z,26.17
2024-04-08T10:13:26.758Z,26.21
2024-04-08T10:15:54.005Z,26.29
2024-04-08T10:18:21.247Z,26.26
2024-04-08T10:20:48.713Z,26.20
2024-04-08T10:23:16.099Z,26.34
2024-04-08T10:25:44.618Z,26.27
2024-04-08T10:28:21.286Z,26.30
2024-04-08T10:30:48.574Z,26.30
2024-04-08T10:33:15.414Z,26.30
2024-04-08T10:35:42.314Z,26.22
2024-04-08T10:38:09.529Z,26.27
2024-04-08T10:40:37.046Z,26.23
2024-04-08T10:43:03.873Z,26.27
2024-04-08T10:45:30.599Z,26.31
2024-04-08T10:48:02.989Z,26.36
2024-04-08T10:50:31.790Z,26.34
2024-04-08T10:52:58.557Z,26.35
2024-04-08T10:55:25.240Z,26.37
2024-04-08T10:57:51.919Z,26.37
2024-04-08T11:00:18.652Z,26.40
2024-04-08T11:02:45.396Z,26.39
2024-04-08T11:05:13.148Z,26.30
2024-04-08T11:07:41.161Z,26.17
2024-04-08T11:10:14.981Z,26.31
2024-04-08T11:12:41.665Z,26.26
2024-04-08T11:15:10.373Z,26.30
2024-04-08T11:17:37.381Z,26.35
2024-04-08T11:20:06.780Z,26.28
2024-04-08T11:22:36.633Z,26.40
2024-04-08T11:25:04.385Z,26.34
2024-04-08T11:27:31.246Z,26.22
2024-04-08T11:29:58.359Z,26.39
2024-04-08T11:32:25.073Z,26.36
2024-04-08T11:34:52.240Z,26.41
2024-04-08T11:37:18.999Z,26.41
2024-04-08T11:39:46.070Z,26.38
2024-04-08T11:42:13.127Z,26.41
2024-04-08T11:44:43.914Z,26.44
2024-04-08T11:47:14.742Z,26.43
2024-04-08T11:49:44.415Z,26.44
2024-04-08T11:52:13.563Z,26.43
2024-04-08T11:54:53.123Z,26.37
2024-04-08T11:57:26.979Z,26.46
2024-04-08T11:59:53.765Z,26.52
2024-04-08T12:02:22.731Z,26.55
2024-04-08T12:04:49.452Z,26.43
2024-04-08T12:07:16.871Z,26.59
2024-04-08T12:09:45.372Z,26.57
2024-04-08T12:12:14.585Z,26.66
2024-04-08T12:14:42.279Z,26.69
2024-04-08T12:17:09.684Z,26.70
2024-04-08T12:19:36.502Z,26.73
2024-04-08T12:22:03.166Z,26.77
2024-04-08T12:24:29.880Z,26.84
2024-04-08T12:26:56.686Z,26.87
2024-04-08T12:29:23.498Z,26.86
2024-04-08T12:31:50.310Z,26.89
2024-04-08T12:34:17.051Z,26.95
2024-04-08T12:36:43.778Z,26.94
2024-04-08T12:39:10.673Z,27.02
2024-04-08T12:41:39.280Z,27.02
2024-04-08T12:44:08.502Z,27.05
2024-04-08T12:46:35.295Z,27.03
2024-04-08T12:49:02.253Z,27.11
2024-04-08T12:51:29.229Z,27.13
2024-04-08T12:53:57.194Z,27.16
2024-04-08T12:56:24.598Z,27.14
2024-04-08T12:58:57.300Z,27.19
2024-04-08T13:01:25.070Z,27.27
2024-04-08T13:03:56.505Z,27.24
2024-04-08T13:06:23.959Z,27.12
2024-04-08T13:08:51.360Z,27.19
2024-04-08T13:11:18.534Z,27.09
2024-04-08T13:13:48.152Z,27.22
2024-04-08T13:16:15.827Z,27.20
2024-04-08T13:18:43.654Z,27.19
2024-04-08T13:21:11.023Z,27.15
2024-04-08T13:23:39.253Z,27.17
2024-04-08T13:26:06.790Z,27.19
2024-04-08T13:28:33.543Z,27.20
2024-04-08T13:31:00.360Z,27.22
2024-04-08T13:33:27.292Z,27.19
2024-04-08T13:35:54.248Z,27.18
2024-04-08T13:38:21.067Z,27.18
2024-04-08T13:40:47.918Z,27.25
2024-04-08T13:43:17.103Z,27.30
2024-04-08T13:45:44.434Z,27.27
2024-04-08T13:48:11.574Z,27.24
2024-04-08T13:50:38.444Z,27.26
2024-04-08T13:53:05.381Z,27.21
2024-04-08T13:55:32.921Z,27.17
2024-04-08T13:58:01.110Z,27.17
2024-04-08T14:00:27.952Z,27.16
2024-04-08T14:02:54.802Z,27.16
2024-04-08T14:05:21.524Z,27.19
2024-04-08T14:07:48.285Z,27.18
2024-04-08T14:10:15.132Z,27.17
2024-04-08T14:12:41.926Z,27.18
2024-04-08T14:15:09.296Z,27.13
2024-04-08T14:17:36.224Z,27.20
2024-04-08T14:20:03.163Z,27.16
2024-04-08T14:22:29.894Z,27.19
2024-04-08T14:24:56.646Z,27.18
2024-04-08T14:27:23.493Z,27.09
2024-04-08T14:29:55.813Z,27.16
2024-04-08T14:32:27.516Z,27.17
2024-04-08T14:34:54.403Z,27.13
2024-04-08T14:37:31.775Z,27.19
2024-04-08T14:40:08.510Z,27.04
2024-04-08T14:42:35.299Z,27.18
2024-04-08T14:45:04.726Z,27.16
2024-04-08T14:47:32.464Z,27.03
2024-04-08T14:50:00.014Z,27.09
2024-04-08T14:52:33.466Z,27.14
2024-04-08T14:55:06.803Z,27.11
2024-04-08T14:57:33.790Z,27.07
2024-04-08T15:00:00.913Z,27.08
2024-04-08T15:02:27.871Z,27.13
2024-04-08T15:04:54.743Z,27.05
2024-04-08T15:07:27.579Z,27.12
2024-04-08T15:09:55.527Z,27.09
2024-04-08T15:12:22.447Z,27.11
2024-04-08T15:14:49.315Z,27.12
2024-04-08T15:17:16.582Z,27.19
2024-04-08T15:19:44.014Z,27.19
2024-04-08T15:22:11.013Z,27.16
2024-04-08T15:24:37.693Z,27.14
2024-04-08T15:27:06.169Z,27.06
2024-04-08T15:29:32.841Z,27.03
2024-04-08T15:32:01.842Z,27.05
2024-04-08T15:34:28.666Z,27.05
2024-04-08T15:36:55.463Z,27.05
2024-04-08T15:39:22.817Z,27.07
2024-04-08T15:41:49.646Z,27.06
2024-04-08T15:44:16.507Z,26.96
2024-04-08T15:46:43.342Z,27.03
2024-04-08T15:49:12.151Z,27.04
2024-04-08T15:51:38.923Z,27.07
2024-04-08T15:54:08.018Z,27.04
2024-04-08T15:56:35.930Z,27.03
2024-04-08T15:59:02.957Z,27.03
2024-04-08T16:01:29.726Z,26.97
2024-04-08T16:03:56.658Z,26.92
2024-04-08T16:06:23.462Z,26.99
2024-04-08T16:08:50.309Z,27.01
2024-04-08T16:11:20.586Z,27.05
2024-04-08T16:13:47.397Z,26.97
2024-04-08T16:16:14.257Z,26.90
2024-04-08T16:18:44.247Z,26.95
2024-04-08T16:21:11.594Z,26.95
2024-04-08T16:23:52.539Z,26.99
2024-04-08T16:26:23.301Z,27.05
2024-04-08T16:28:58.095Z,27.01
2024-04-08T16:31:28.229Z,26.91
2024-04-08T16:33:55.157Z,26.99
2024-04-08T16:36:23.699Z,27.06
2024-04-08T16:38:50.555Z,27.07
2024-04-08T16:41:17.251Z,27.08
2024-04-08T16:43:47.138Z,27.01
2024-04-08T16:46:13.853Z,27.08
2024-04-08T16:48:40.656Z,27.12
2024-04-08T16:51:07.609Z,27.13
2024-04-08T16:53:34.359Z,27.08
2024-04-08T16:56:04.715Z,27.11
2024-04-08T16:58:31.595Z,27.12
2024-04-08T17:00:58.444Z,27.05
2024-04-08T17:03:28.544Z,27.02
2024-04-08T17:06:05.753Z,27.00
2024-04-08T17:08:32.727Z,27.12
2024-04-08T17:11:02.939Z,27.14
2024-04-08T17:13:36.815Z,27.05
2024-04-08T17:16:05.431Z,27.11
2024-04-08T17:18:32.462Z,26.95
2024-04-08T17:20:59.421Z,27.01
2024-04-08T17:23:26.341Z,26.81
2024-04-08T17:25:54.329Z,26.99
2024-04-08T17:28:21.100Z,26.92
2024-04-08T17:31:03.932Z,26.95
2024-04-08T17:33:34.068Z,26.92
2024-04-08T17:36:02.568Z,26.90
2024-04-08T17:38:32.137Z,26.94
2024-04-08T17:41:02.331Z,27.00
2024-04-08T17:43:36.520Z,26.88
2024-04-08T17:46:04.508Z,26.82
2024-04-08T17:48:36.623Z,26.72
2024-04-08T17:51:04.593Z,26.69
2024-04-08T17:53:34.221Z,26.60
2024-04-08T17:56:04.012Z,26.53
2024-04-08T17:58:34.530Z,26.54
2024-04-08T18:01:08.114Z,26.43
2024-04-08T18:03:39.160Z,26.40
2024-04-08T18:06:11.405Z,26.44
2024-04-08T18:08:42.366Z,26.40
2024-04-08T18:11:11.484Z,26.53
2024-04-08T18:13:38.688Z,26.66
2024-04-08T18:16:08.036Z,26.65
2024-04-08T18:18:35.539Z,26.65
2024-04-08T18:21:05.891Z,26.74
2024-04-08T18:23:33.741Z,26.72
2024-04-08T18:26:01.291Z,26.62
2024-04-08T18:28:30.658Z,26.57
2024-04-08T18:31:07.889Z,26.55
2024-04-08T18:33:37.678Z,26.41
2024-04-08T18:36:08.562Z,26.45
2024-04-08T18:38:36.082Z,26.39
2024-04-08T18:41:07.585Z,26.41
2024-04-08T18:43:36.819Z,26.53
2024-04-08T18:46:07.892Z,26.59
2024-04-08T18:48:35.896Z,26.60
2024-04-08T18:51:06.156Z,26.50
2024-04-08T18:53:33.590Z,26.70
2024-04-08T18:56:00.397Z,26.61
2024-04-08T18:58:27.179Z,26.67
2024-04-08T19:00:54.021Z,26.79
2024-04-08T19:03:21.293Z,26.89
2024-04-08T19:05:50.162Z,26.94
2024-04-08T19:08:17.587Z,26.97
2024-04-08T19:10:44.734Z,26.96
2024-04-08T19:13:11.674Z,26.98
2024-04-08T19:15:38.697Z,27.02
2024-04-08T19:18:06.090Z,27.01
2024-04-08T19:20:34.645Z,27.00
2024-04-08T19:23:01.541Z,26.99
2024-04-08T19:25:28.392Z,27.02
2024-04-08T19:27:56.644Z,27.02
2024-04-08T19:30:23.688Z,27.02
2024-04-08T19:32:50.636Z,27.03
2024-04-08T19:35:17.523Z,27.04
2024-04-08T19:37:44.724Z,26.95
2024-04-08T19:40:11.709Z,27.00
2024-04-08T19:42:38.646Z,27.05
2024-04-08T19:45:05.866Z,27.05
2024-04-08T19:47:34.349Z,27.05
2024-04-08T19:50:02.684Z,27.03
2024-04-08T19:52:29.864Z,27.04
2024-04-08T19:54:56.646Z,27.04
2024-04-08T19:57:26.176Z,26.98
2024-04-08T19:59:53.099Z,26.91
2024-04-08T20:02:19.907Z,26.94
2024-04-08T20:04:48.630Z,27.04
2024-04-08T20:07:15.438Z,26.92
2024-04-08T20:09:44.816Z,26.91
2024-04-08T20:12:11.661Z,26.89
2024-04-08T20:14:38.555Z,26.86
2024-04-08T20:17:05.533Z,26.84
2024-04-08T20:19:32.546Z,26.80
2024-04-08T20:21:59.325Z,26.78
2024-04-08T20:24:26.108Z,26.73
2024-04-08T20:26:53.027Z,26.74
2024-04-08T20:29:20.454Z,26.74
2024-04-08T20:31:47.188Z,26.74
2024-04-08T20:34:14.019Z,26.71
2024-04-08T20:36:41.008Z,26.70
2024-04-08T20:39:07.887Z,26.69
2024-04-08T20:41:35.872Z,26.71
2024-04-08T20:44:02.638Z,26.65
2024-04-08T20:46:30.783Z,26.66
2024-04-08T20:49:00.244Z,26.70
2024-04-08T20:51:27.863Z,26.69
2024-04-08T20:53:59.710Z,26.64
2024-04-08T20:56:26.467Z,26.68
2024-04-08T20:58:53.278Z,26.65
2024-04-08T21:01:20.165Z,26.57
2024-04-08T21:03:47.027Z,26.58
2024-04-08T21:06:14.822Z,26.60
2024-04-08T21:08:41.943Z,26.61
2024-04-08T21:11:12.685Z,26.62
2024-04-08T21:13:39.854Z,26.61
2024-04-08T21:16:06.973Z,26.61
2024-04-08T21:18:34.410Z,26.63
2024-04-08T21:21:05.416Z,26.68
2024-04-08T21:23:32.684Z,26.69
2024-04-08T21:26:18.162Z,26.65
2024-04-08T21:28:44.930Z,26.68
2024-04-08T21:31:12.096Z,26.65
2024-04-08T21:33:39.871Z,26.69
2024-04-08T21:36:07.251Z,26.65
2024-04-08T21:38:34.156Z,26.59
2024-04-08T21:41:03.044Z,26.60
2024-04-08T21:43:29.874Z,26.60
2024-04-08T21:45:58.016Z,26.55
2024-04-08T21:48:25.052Z,26.65
2024-04-08T21:50:55.003Z,26.66
2024-04-08T21:53:30.425Z,26.54
2024-04-08T21:56:00.218Z,26.64
2024-04-08T21:58:27.211Z,26.58
2024-04-08T22:00:56.316Z,26.65
2024-04-08T22:03:24.677Z,26.58
2024-04-08T22:05:51.560Z,26.66
2024-04-08T22:08:18.361Z,26.66
2024-04-08T22:10:45.247Z,26.68
2024-04-08T22:13:12.315Z,26.60
2024-04-08T22:15:39.344Z,26.60
2024-04-08T22:18:06.337Z,26.55
2024-04-08T22:20:33.188Z,26.53
2024-04-08T22:22:59.992Z,26.54
2024-04-08T22:25:26.670Z,26.59
2024-04-08T22:27:53.351Z,26.57
2024-04-08T22:30:20.147Z,26.53
2024-04-08T22:32:47.011Z,26.51
2024-04-08T22:35:16.550Z,26.49
2024-04-08T22:37:43.251Z,26.54
2024-04-08T22:40:10.013Z,26.53
2024-04-08T22:42:36.810Z,26.57
2024-04-08T22:45:03.731Z,26.55
2024-04-08T22:47:30.602Z,26.46
2024-04-08T22:49:57.369Z,26.57
2024-04-08T22:52:24.126Z,26.61
2024-04-08T22:54:53.728Z,26.60
2024-04-08T22:57:20.513Z,26.56
2024-04-08T22:59:47.274Z,26.56
2024-04-08T23:02:14.036Z,26.54
2024-04-08T23:04:41.337Z,26.65
2024-04-08T23:07:08.222Z,26.62
2024-04-08T23:09:35.598Z,26.63
2024-04-08T23:12:02.350Z,26.65
2024-04-08T23:14:29.285Z,26.67
2024-04-08T23:16:55.944Z,26.68
2024-04-08T23:19:22.746Z,26.69
2024-04-08T23:21:49.446Z,26.65
2024-04-08T23:24:16.223Z,26.52
2024-04-08T23:26:42.923Z,26.67
2024-04-08T23:29:10.437Z,26.68
2024-04-08T23:31:37.204Z,26.68
2024-04-08T23:34:07.752Z,26.67
2024-04-08T23:36:34.594Z,26.67
2024-04-08T23:39:01.453Z,26.66
2024-04-08T23:41:28.246Z,26.63
2024-04-08T23:43:55.105Z,26.66
2024-04-08T23:46:21.779Z,26.65
2024-04-08T23:48:48.562Z,26.61
2024-04-08T23:51:15.333Z,26.55
2024-04-08T23:53:44.896Z,26.65
2024-04-08T23:56:11.611Z,26.63
2024-04-08T23:58:38.373Z,26.60
